createdAt,value
2022-10-19T00:00:31.597Z,14.57
2022-10-19T00:03:34.568Z,14.10
2022-10-19T00:06:37.553Z,14.35
2022-10-19T00:09:39.920Z,13.33
2022-10-19T00:12:42.229Z,13.75
2022-10-19T00:15:45.299Z,13.68
2022-10-19T00:18:47.598Z,13.32
2022-10-19T00:24:57.964Z,13.90
2022-10-19T00:28:00.541Z,14.88
2022-10-19T00:31:06.900Z,13.00
2022-10-19T00:34:09.218Z,14.15
2022-10-19T00:37:11.384Z,13.48
2022-10-19T00:40:13.836Z,14.73
2022-10-19T00:43:16.986Z,13.82
2022-10-19T00:46:19.133Z,13.40
2022-10-19T00:49:29.197Z,13.18
2022-10-19T00:52:31.795Z,14.73
2022-10-19T00:55:34.740Z,14.13
2022-10-19T00:58:36.983Z,13.20
2022-10-19T01:01:39.405Z,13.75
2022-10-19T01:04:44.802Z,13.32
2022-10-19T01:07:47.122Z,13.70
2022-10-19T01:10:49.318Z,13.67
2022-10-19T01:13:57.645Z,15.30
2022-10-19T01:16:59.830Z,14.20
2022-10-19T01:20:05.058Z,13.95
2022-10-19T01:23:45.858Z,13.82
2022-10-19T01:26:50.813Z,14.73
2022-10-19T01:29:59.065Z,13.88
2022-10-19T01:33:01.434Z,13.60
2022-10-19T01:36:18.800Z,14.43
2022-10-19T01:39:25.928Z,14.77
2022-10-19T01:42:40.922Z,13.17
2022-10-19T01:45:48.058Z,13.20
2022-10-19T01:49:02.427Z,14.30
2022-10-19T01:52:06.194Z,13.00
2022-10-19T01:55:09.828Z,12.50
2022-10-19T01:58:14.647Z,13.77
2022-10-19T02:01:18.830Z,13.63
2022-10-19T02:04:24.938Z,13.60
2022-10-19T02:07:27.708Z,13.85
2022-10-19T02:10:31.242Z,13.40
2022-10-19T02:13:33.508Z,13.77
2022-10-19T02:16:42.289Z,13.88
2022-10-19T02:19:44.736Z,14.23
2022-10-19T02:22:46.943Z,13.40
2022-10-19T02:25:49.229Z,12.98
2022-10-19T02:28:51.455Z,13.43
2022-10-19T02:31:53.709Z,14.20
2022-10-19T02:34:56.246Z,14.63
2022-10-19T02:37:59.987Z,14.02
2022-10-19T02:41:22.387Z,14.05
2022-10-19T02:44:24.786Z,14.13
2022-10-19T02:47:38.882Z,13.77
2022-10-19T02:50:44.540Z,14.88
2022-10-19T02:53:46.749Z,15.32
2022-10-19T02:56:48.906Z,15.23
2022-10-19T02:59:51.585Z,14.67
2022-10-19T03:02:53.967Z,15.55
2022-10-19T03:05:56.130Z,14.80
2022-10-19T03:08:58.265Z,13.70
2022-10-19T03:12:00.398Z,13.63
2022-10-19T03:15:02.542Z,13.90
2022-10-19T03:18:04.771Z,13.63
2022-10-19T03:21:12.058Z,15.50
2022-10-19T03:24:14.318Z,15.85
2022-10-19T03:27:16.792Z,15.95
2022-10-19T03:30:18.941Z,16.13
2022-10-19T03:33:21.197Z,15.93
2022-10-19T03:36:28.804Z,16.98
2022-10-19T03:39:31.240Z,15.85
2022-10-19T03:42:33.661Z,16.38
2022-10-19T03:45:35.843Z,16.27
2022-10-19T03:48:38.045Z,16.05
2022-10-19T03:51:40.281Z,15.50
2022-10-19T03:54:42.490Z,16.13
2022-10-19T03:57:44.651Z,15.80
2022-10-19T04:00:47.140Z,16.40
2022-10-19T04:04:15.785Z,16.33
2022-10-19T04:07:18.064Z,16.63
2022-10-19T04:10:20.309Z,16.15
2022-10-19T04:13:22.504Z,16.63
2022-10-19T04:16:26.248Z,16.20
2022-10-19T04:19:28.795Z,15.70
2022-10-19T04:22:31.046Z,15.57
2022-10-19T04:25:33.400Z,16.90
2022-10-19T04:28:35.591Z,16.73
2022-10-19T04:31:38.189Z,16.30
2022-10-19T04:34:40.419Z,17.02
2022-10-19T04:37:42.550Z,16.67
2022-10-19T04:40:44.683Z,17.00
2022-10-19T04:43:47.232Z,17.05
2022-10-19T04:46:49.444Z,17.73
2022-10-19T04:49:51.586Z,17.55
2022-10-19T04:52:53.794Z,17.98
2022-10-19T04:55:56.000Z,18.85
2022-10-19T04:58:58.766Z,20.15
2022-10-19T05:02:00.959Z,18.70
2022-10-19T05:05:03.171Z,18.05
2022-10-19T05:08:05.520Z,18.25
2022-10-19T05:11:09.485Z,17.83
2022-10-19T05:14:11.644Z,18.55
2022-10-19T05:17:13.889Z,17.50
2022-10-19T05:20:16.315Z,18.42
2022-10-19T05:23:19.479Z,19.10
2022-10-19T05:26:24.188Z,17.80
2022-10-19T05:29:28.372Z,17.00
2022-10-19T05:32:32.588Z,18.40
2022-10-19T05:35:35.191Z,17.70
2022-10-19T05:38:39.402Z,16.45
2022-10-19T05:41:47.798Z,17.20
2022-10-19T05:44:50.890Z,15.63
2022-10-19T05:47:57.310Z,16.90
2022-10-19T05:51:05.402Z,17.52
2022-10-19T05:54:08.608Z,17.33
2022-10-19T05:57:11.420Z,17.38
2022-10-19T06:00:30.136Z,17.40
2022-10-19T06:04:00.091Z,16.33
2022-10-19T06:07:34.877Z,17.08
2022-10-19T06:10:40.647Z,18.05
2022-10-19T06:13:44.868Z,16.75
2022-10-19T06:16:48.558Z,17.25
2022-10-19T06:19:51.572Z,20.10
2022-10-19T06:22:54.989Z,18.67
2022-10-19T06:25:59.959Z,17.30
2022-10-19T06:29:03.730Z,16.65
2022-10-19T06:32:11.169Z,16.70
2022-10-19T06:35:14.595Z,16.67
2022-10-19T06:38:17.788Z,16.52
2022-10-19T06:41:25.675Z,15.07
2022-10-19T06:44:28.139Z,15.00
2022-10-19T06:47:33.288Z,14.82
2022-10-19T06:50:40.306Z,14.37
2022-10-19T06:53:47.235Z,13.77
2022-10-19T06:59:57.248Z,13.05
2022-10-19T07:02:59.974Z,12.23
2022-10-19T07:06:07.385Z,11.90
2022-10-19T07:09:10.775Z,11.43
2022-10-19T07:12:13.178Z,10.10
2022-10-19T07:15:16.112Z,9.95
2022-10-19T07:18:21.104Z,9.90
2022-10-19T07:21:24.192Z,10.07
2022-10-19T07:24:27.527Z,8.43
2022-10-19T07:27:34.023Z,7.25
2022-10-19T07:30:40.474Z,7.10
2022-10-19T07:33:45.264Z,7.32
2022-10-19T07:36:48.264Z,6.87
2022-10-19T07:39:50.741Z,6.25
2022-10-19T07:42:53.565Z,7.03
2022-10-19T07:45:59.951Z,6.60
2022-10-19T07:49:02.183Z,7.38
2022-10-19T07:52:04.681Z,5.97
2022-10-19T07:55:09.364Z,6.63
2022-10-19T07:58:11.871Z,6.82
2022-10-19T08:01:18.896Z,6.28
2022-10-19T08:07:43.462Z,5.60
2022-10-19T08:10:45.777Z,5.72
2022-10-19T08:13:48.496Z,5.88
2022-10-19T08:16:51.391Z,5.80
2022-10-19T08:19:54.830Z,5.75
2022-10-19T08:23:05.155Z,5.77
2022-10-19T08:26:07.768Z,5.57
2022-10-19T08:29:15.880Z,5.63
2022-10-19T08:32:20.490Z,5.38
2022-10-19T08:35:22.791Z,4.93
2022-10-19T08:38:28.140Z,4.67
2022-10-19T08:41:33.792Z,5.15
2022-10-19T08:44:39.304Z,5.05
2022-10-19T08:47:45.007Z,4.95
2022-10-19T08:50:48.713Z,4.82
2022-10-19T08:58:32.433Z,4.88
2022-10-19T09:01:54.861Z,5.13
2022-10-19T09:05:00.861Z,4.63
2022-10-19T09:08:03.592Z,5.03
2022-10-19T09:11:07.321Z,5.50
2022-10-19T09:14:18.505Z,5.18
2022-10-19T09:17:20.709Z,5.03
2022-10-19T09:20:25.659Z,4.72
2022-10-19T09:23:30.882Z,4.95
2022-10-19T09:26:36.079Z,4.80
2022-10-19T09:29:38.387Z,4.97
2022-10-19T09:32:41.281Z,4.47
2022-10-19T09:35:45.479Z,4.53
2022-10-19T09:38:55.942Z,4.80
2022-10-19T09:42:00.615Z,4.57
2022-10-19T09:45:17.481Z,4.45
2022-10-19T09:48:53.080Z,4.38
2022-10-19T09:51:55.640Z,4.53
2022-10-19T09:55:21.449Z,4.82
2022-10-19T09:58:29.172Z,5.40
2022-10-19T10:02:25.969Z,4.68
2022-10-19T10:05:33.853Z,4.60
2022-10-19T10:08:39.623Z,5.00
2022-10-19T10:11:43.805Z,4.88
2022-10-19T10:14:46.134Z,4.70
2022-10-19T10:17:49.441Z,4.82
2022-10-19T10:21:00.001Z,4.32
2022-10-19T10:24:21.266Z,4.15
2022-10-19T10:27:29.650Z,4.55
2022-10-19T10:30:34.398Z,4.03
2022-10-19T10:33:45.138Z,4.20
2022-10-19T10:36:52.146Z,3.78
2022-10-19T10:39:59.036Z,3.60
2022-10-19T10:43:09.331Z,3.38
2022-10-19T10:46:17.482Z,3.40
2022-10-19T10:49:27.654Z,2.97
2022-10-19T10:52:40.351Z,3.05
2022-10-19T10:56:03.329Z,2.80
2022-10-19T10:59:14.705Z,3.20
2022-10-19T11:02:29.391Z,3.40
2022-10-19T11:05:34.532Z,3.00
2022-10-19T11:08:51.459Z,3.17
2022-10-19T11:11:56.136Z,3.28
2022-10-19T11:15:06.155Z,3.00
2022-10-19T11:18:09.592Z,2.60
2022-10-19T11:21:15.662Z,2.22
2022-10-19T11:24:36.727Z,1.67
2022-10-19T11:27:47.745Z,1.10
2022-10-19T11:30:56.736Z,1.15
2022-10-19T11:34:00.442Z,1.20
2022-10-19T11:37:49.446Z,1.05
2022-10-19T11:47:10.345Z,1.17
2022-10-19T11:50:31.076Z,1.33
2022-10-19T11:53:44.184Z,1.20
2022-10-19T11:57:02.207Z,1.17
2022-10-19T12:00:15.069Z,1.08
2022-10-19T12:03:43.973Z,1.25
2022-10-19T12:06:57.201Z,1.10
2022-10-19T12:10:07.057Z,1.13
2022-10-19T12:13:11.847Z,1.60
2022-10-19T12:16:14.896Z,1.38
2022-10-19T12:19:29.132Z,1.30
2022-10-19T12:22:31.729Z,1.05
2022-10-19T12:25:38.699Z,1.00
2022-10-19T12:28:44.671Z,1.38
2022-10-19T12:31:48.035Z,1.38
2022-10-19T12:34:50.281Z,1.30
2022-10-19T12:37:58.729Z,1.33
2022-10-19T12:41:06.616Z,1.33
2022-10-19T12:44:25.554Z,1.25
2022-10-19T12:47:27.793Z,1.50
2022-10-19T12:50:48.414Z,1.20
2022-10-19T12:53:50.991Z,1.33
2022-10-19T12:56:54.348Z,1.10
2022-10-19T13:00:06.926Z,1.25
2022-10-19T13:03:23.946Z,1.10
2022-10-19T13:06:28.421Z,1.10
2022-10-19T13:09:37.559Z,1.10
2022-10-19T13:12:43.684Z,1.03
2022-10-19T13:15:50.397Z,1.20
2022-10-19T13:19:04.462Z,1.17
2022-10-19T13:22:33.188Z,1.38
2022-10-19T13:25:39.086Z,1.00
2022-10-19T13:28:52.441Z,1.23
2022-10-19T13:31:54.636Z,1.20
2022-10-19T13:35:16.882Z,1.27
2022-10-19T13:38:21.262Z,1.40
2022-10-19T13:41:26.147Z,1.13
2022-10-19T13:44:31.816Z,1.67
2022-10-19T13:47:39.773Z,1.27
2022-10-19T13:50:46.794Z,1.48
2022-10-19T13:54:04.319Z,1.08
2022-10-19T13:57:14.785Z,1.48
2022-10-19T14:00:17.673Z,1.20
2022-10-19T14:03:28.915Z,1.40
2022-10-19T14:06:43.288Z,1.60
2022-10-19T14:10:13.502Z,1.48
2022-10-19T14:13:15.938Z,1.30
2022-10-19T14:16:22.483Z,1.60
2022-10-19T14:19:27.648Z,1.50
2022-10-19T14:22:31.218Z,2.15
2022-10-19T14:25:33.453Z,1.90
2022-10-19T14:28:36.036Z,2.03
2022-10-19T14:31:38.452Z,2.30
2022-10-19T14:34:41.641Z,2.08
2022-10-19T14:37:44.255Z,2.10
2022-10-19T14:40:46.568Z,2.38
2022-10-19T14:43:48.741Z,2.38
2022-10-19T14:46:50.999Z,2.27
2022-10-19T14:49:53.640Z,2.60
2022-10-19T14:52:58.677Z,2.50
2022-10-19T14:56:12.362Z,2.15
2022-10-19T14:59:37.475Z,2.50
2022-10-19T15:02:45.476Z,2.13
2022-10-19T15:05:48.701Z,2.50
2022-10-19T15:11:59.872Z,2.28
2022-10-19T15:15:08.276Z,2.25
2022-10-19T15:18:30.197Z,2.10
2022-10-19T15:21:38.516Z,2.15
2022-10-19T15:24:53.741Z,2.05
2022-10-19T15:27:57.639Z,2.28
2022-10-19T15:31:07.228Z,2.10
2022-10-19T15:34:19.781Z,2.13
2022-10-19T15:37:23.118Z,2.08
2022-10-19T15:40:39.375Z,2.50
2022-10-19T15:43:46.117Z,2.40
2022-10-19T15:46:48.384Z,2.38
2022-10-19T15:50:01.134Z,2.37
2022-10-19T15:53:03.438Z,2.60
2022-10-19T15:56:06.186Z,2.47
2022-10-19T15:59:19.461Z,2.30
2022-10-19T16:02:22.233Z,2.85
2022-10-19T16:05:24.445Z,2.43
2022-10-19T16:08:27.178Z,2.35
2022-10-19T16:11:30.325Z,2.67
2022-10-19T16:14:35.772Z,2.80
2022-10-19T16:17:39.345Z,2.70
2022-10-19T16:20:42.770Z,2.53
2022-10-19T16:23:46.185Z,2.85
2022-10-19T16:26:48.510Z,2.70
2022-10-19T16:29:50.971Z,2.50
2022-10-19T16:32:53.664Z,2.75
2022-10-19T16:35:55.888Z,2.47
2022-10-19T16:38:59.738Z,2.47
2022-10-19T16:42:01.952Z,2.80
2022-10-19T16:45:04.364Z,2.65
2022-10-19T16:48:06.663Z,2.42
2022-10-19T16:51:10.389Z,2.80
2022-10-19T16:54:13.212Z,3.40
2022-10-19T16:57:15.508Z,3.08
2022-10-19T17:00:17.679Z,2.90
2022-10-19T17:03:19.918Z,2.97
2022-10-19T17:06:22.568Z,2.77
2022-10-19T17:09:42.225Z,3.33
2022-10-19T17:12:44.994Z,3.20
2022-10-19T17:15:47.323Z,2.90
2022-10-19T17:18:49.812Z,3.00
2022-10-19T17:21:54.397Z,2.70
2022-10-19T17:24:56.852Z,3.05
2022-10-19T17:27:59.234Z,2.72
2022-10-19T17:31:06.289Z,2.83
2022-10-19T17:34:08.800Z,3.08
2022-10-19T17:37:11.171Z,2.83
2022-10-19T17:40:14.536Z,3.25
2022-10-19T17:43:17.154Z,3.03
2022-10-19T17:46:20.928Z,2.85
2022-10-19T17:49:23.241Z,3.15
2022-10-19T17:52:25.866Z,2.73
2022-10-19T17:55:28.327Z,2.50
2022-10-19T17:58:32.583Z,3.17
2022-10-19T18:01:35.949Z,3.15
2022-10-19T18:04:38.695Z,2.58
2022-10-19T18:07:42.896Z,2.80
2022-10-19T18:10:45.323Z,3.03
2022-10-19T18:13:48.232Z,2.97
2022-10-19T18:16:52.069Z,3.30
2022-10-19T18:19:54.418Z,3.65
2022-10-19T18:22:56.768Z,3.03
2022-10-19T18:26:03.165Z,3.50
2022-10-19T18:29:10.542Z,3.30
2022-10-19T18:32:12.964Z,3.17
2022-10-19T18:35:15.398Z,3.15
2022-10-19T18:38:17.755Z,3.40
2022-10-19T18:41:20.122Z,3.50
2022-10-19T18:44:26.384Z,3.85
2022-10-19T18:47:30.174Z,4.40
2022-10-19T18:50:32.885Z,3.95
2022-10-19T18:53:35.283Z,4.20
2022-10-19T18:56:37.735Z,3.58
2022-10-19T18:59:40.110Z,3.90
2022-10-19T19:02:46.753Z,4.15
2022-10-19T19:05:49.520Z,4.15
2022-10-19T19:08:56.082Z,4.27
2022-10-19T19:11:59.238Z,4.10
2022-10-19T19:15:01.771Z,4.47
2022-10-19T19:18:04.567Z,4.10
2022-10-19T19:21:13.279Z,3.67
2022-10-19T19:24:20.286Z,3.60
2022-10-19T19:27:27.263Z,3.60
2022-10-19T19:30:33.209Z,3.63
2022-10-19T19:33:35.656Z,3.50
2022-10-19T19:36:42.845Z,3.17
2022-10-19T19:39:45.289Z,2.80
2022-10-19T19:42:47.602Z,2.92
2022-10-19T19:46:03.160Z,3.10
2022-10-19T19:49:08.865Z,2.70
2022-10-19T19:52:11.258Z,2.88
2022-10-19T19:55:13.662Z,3.33
2022-10-19T19:58:16.476Z,2.90
2022-10-19T20:01:19.584Z,3.28
2022-10-19T20:04:22.316Z,2.63
2022-10-19T20:07:26.917Z,3.10
2022-10-19T20:10:29.294Z,3.77
2022-10-19T20:13:31.964Z,3.35
2022-10-19T20:16:34.467Z,3.50
2022-10-19T20:19:37.073Z,3.08
2022-10-19T20:22:39.666Z,3.55
2022-10-19T20:25:42.026Z,3.40
2022-10-19T20:28:44.951Z,3.47
2022-10-19T20:31:47.570Z,3.70
2022-10-19T20:34:50.584Z,3.60
2022-10-19T20:37:53.369Z,3.85
2022-10-19T20:40:55.840Z,3.70
2022-10-19T20:43:58.107Z,3.80
2022-10-19T20:47:00.455Z,4.10
2022-10-19T20:53:06.064Z,3.60
2022-10-19T20:56:09.180Z,4.00
2022-10-19T20:59:12.925Z,4.10
2022-10-19T21:02:15.108Z,3.60
2022-10-19T21:05:17.399Z,3.53
2022-10-19T21:08:20.667Z,3.72
2022-10-19T21:11:24.051Z,3.63
2022-10-19T21:14:28.450Z,3.72
2022-10-19T21:20:38.221Z,4.13
2022-10-19T21:23:40.414Z,4.60
2022-10-19T21:26:42.872Z,4.70
2022-10-19T21:29:45.128Z,4.35
2022-10-19T21:32:47.673Z,4.22
2022-10-19T21:38:53.026Z,4.22
2022-10-19T21:41:55.978Z,4.50
2022-10-19T21:45:06.210Z,4.10
2022-10-19T21:48:14.127Z,4.22
2022-10-19T21:51:34.925Z,4.43
2022-10-19T21:54:37.162Z,4.55
2022-10-19T21:57:39.315Z,4.33
2022-10-19T22:00:41.748Z,4.25
2022-10-19T22:03:44.135Z,4.80
2022-10-19T22:06:46.898Z,5.13
2022-10-19T22:09:49.040Z,3.83
2022-10-19T22:12:51.291Z,4.20
2022-10-19T22:15:53.458Z,4.22
2022-10-19T22:18:55.637Z,3.85
2022-10-19T22:21:57.781Z,4.22
2022-10-19T22:24:59.972Z,4.20
2022-10-19T22:28:02.468Z,4.47
2022-10-19T22:31:04.625Z,3.97
2022-10-19T22:34:08.139Z,4.05
2022-10-19T22:37:10.346Z,4.55
2022-10-19T22:40:13.224Z,3.92
2022-10-19T22:43:15.406Z,4.00
2022-10-19T22:46:17.640Z,3.80
2022-10-19T22:49:20.104Z,3.33
2022-10-19T22:52:22.240Z,3.88
2022-10-19T22:55:24.738Z,4.47
2022-10-19T22:58:26.912Z,4.23
2022-10-19T23:01:29.206Z,4.50
2022-10-19T23:04:31.485Z,4.10
2022-10-19T23:07:34.106Z,3.88
2022-10-19T23:10:36.523Z,4.07
2022-10-19T23:13:38.776Z,4.03
2022-10-19T23:16:40.989Z,3.80
2022-10-19T23:19:43.264Z,4.43
2022-10-19T23:22:45.486Z,3.67
2022-10-19T23:25:58.271Z,3.55
2022-10-19T23:29:00.457Z,3.73
2022-10-19T23:32:02.611Z,4.65
2022-10-19T23:35:05.256Z,4.78
2022-10-19T23:38:07.448Z,4.78
2022-10-19T23:41:09.700Z,4.68
2022-10-19T23:44:11.981Z,5.03
2022-10-19T23:47:14.138Z,4.90
2022-10-19T23:50:16.564Z,5.13
2022-10-19T23:53:18.715Z,5.38
2022-10-19T23:56:25.186Z,5.18
2022-10-19T23:59:27.363Z,5.93
